sensor_id;sensor_type;location;lat;lon;timestamp;temperature;humidity
4584;DHT22;2304;47.606;12.186;2022-07-05T00:00:29;20.20;85.50
4584;DHT22;2304;47.606;12.186;2022-07-05T00:05:41;20.20;86.40
4584;DHT22;2304;47.606;12.186;2022-07-05T00:10:54;20.50;87.80
4584;DHT22;2304;47.606;12.186;2022-07-05T00:15:56;20.20;86.40
4584;DHT22;2304;47.606;12.186;2022-07-05T00:20:59;20.20;86.60
4584;DHT22;2304;47.606;12.186;2022-07-05T00:26:01;20.20;86.20
4584;DHT22;2304;47.606;12.186;2022-07-05T00:31:03;20.20;86.60
4584;DHT22;2304;47.606;12.186;2022-07-05T00:36:07;20.20;86.30
4584;DHT22;2304;47.606;12.186;2022-07-05T00:41:09;20.10;85.70
4584;DHT22;2304;47.606;12.186;2022-07-05T00:46:11;20.00;85.20
4584;DHT22;2304;47.606;12.186;2022-07-05T00:51:14;20.00;85.40
4584;DHT22;2304;47.606;12.186;2022-07-05T00:56:18;20.00;85.70
4584;DHT22;2304;47.606;12.186;2022-07-05T01:01:21;20.00;86.10
4584;DHT22;2304;47.606;12.186;2022-07-05T01:06:24;19.90;85.70
4584;DHT22;2304;47.606;12.186;2022-07-05T01:11:26;19.90;85.90
4584;DHT22;2304;47.606;12.186;2022-07-05T01:16:29;19.90;86.70
4584;DHT22;2304;47.606;12.186;2022-07-05T01:21:33;19.90;87.70
4584;DHT22;2304;47.606;12.186;2022-07-05T01:26:41;19.90;87.70
4584;DHT22;2304;47.606;12.186;2022-07-05T01:31:43;19.90;87.90
4584;DHT22;2304;47.606;12.186;2022-07-05T01:36:45;19.90;87.70
4584;DHT22;2304;47.606;12.186;2022-07-05T01:41:48;19.90;86.70
4584;DHT22;2304;47.606;12.186;2022-07-05T01:46:55;19.90;87.80
4584;DHT22;2304;47.606;12.186;2022-07-05T01:52:02;20.00;86.60
4584;DHT22;2304;47.606;12.186;2022-07-05T01:57:07;20.00;86.90
4584;DHT22;2304;47.606;12.186;2022-07-05T02:02:09;20.00;87.10
4584;DHT22;2304;47.606;12.186;2022-07-05T02:07:11;20.00;87.00
4584;DHT22;2304;47.606;12.186;2022-07-05T02:12:14;20.00;87.20
4584;DHT22;2304;47.606;12.186;2022-07-05T02:17:16;20.00;87.40
4584;DHT22;2304;47.606;12.186;2022-07-05T02:22:18;20.00;86.70
4584;DHT22;2304;47.606;12.186;2022-07-05T02:27:21;19.90;86.50
4584;DHT22;2304;47.606;12.186;2022-07-05T02:32:24;19.80;85.30
4584;DHT22;2304;47.606;12.186;2022-07-05T02:37:27;19.70;86.80
4584;DHT22;2304;47.606;12.186;2022-07-05T02:42:31;19.70;89.20
4584;DHT22;2304;47.606;12.186;2022-07-05T02:47:34;19.60;89.70
4584;DHT22;2304;47.606;12.186;2022-07-05T02:52:36;19.70;90.00
4584;DHT22;2304;47.606;12.186;2022-07-05T02:57:39;19.70;89.70
4584;DHT22;2304;47.606;12.186;2022-07-05T03:02:41;19.70;89.70
4584;DHT22;2304;47.606;12.186;2022-07-05T03:07:43;19.70;89.40
4584;DHT22;2304;47.606;12.186;2022-07-05T03:12:46;19.60;88.70
4584;DHT22;2304;47.606;12.186;2022-07-05T03:17:48;19.60;89.10
4584;DHT22;2304;47.606;12.186;2022-07-05T03:22:50;19.50;90.70
4584;DHT22;2304;47.606;12.186;2022-07-05T03:27:53;19.60;89.90
4584;DHT22;2304;47.606;12.186;2022-07-05T03:32:55;19.60;89.60
4584;DHT22;2304;47.606;12.186;2022-07-05T03:37:57;19.50;89.90
4584;DHT22;2304;47.606;12.186;2022-07-05T03:43:01;19.60;90.20
4584;DHT22;2304;47.606;12.186;2022-07-05T03:48:03;19.60;89.60
4584;DHT22;2304;47.606;12.186;2022-07-05T03:53:05;19.50;90.30
4584;DHT22;2304;47.606;12.186;2022-07-05T03:58:08;19.50;91.20
4584;DHT22;2304;47.606;12.186;2022-07-05T04:03:10;19.50;89.10
4584;DHT22;2304;47.606;12.186;2022-07-05T04:08:12;19.50;89.30
4584;DHT22;2304;47.606;12.186;2022-07-05T04:13:15;19.50;89.10
4584;DHT22;2304;47.606;12.186;2022-07-05T04:18:17;19.60;88.20
4584;DHT22;2304;47.606;12.186;2022-07-05T04:23:19;19.60;87.90
4584;DHT22;2304;47.606;12.186;2022-07-05T04:28:22;19.60;88.30
4584;DHT22;2304;47.606;12.186;2022-07-05T04:33:25;19.60;88.70
4584;DHT22;2304;47.606;12.186;2022-07-05T04:38:27;19.60;88.70
4584;DHT22;2304;47.606;12.186;2022-07-05T04:43:31;19.70;88.30
4584;DHT22;2304;47.606;12.186;2022-07-05T04:48:34;19.70;88.30
4584;DHT22;2304;47.606;12.186;2022-07-05T04:53:36;19.80;87.90
4584;DHT22;2304;47.606;12.186;2022-07-05T04:58:39;19.80;87.70
4584;DHT22;2304;47.606;12.186;2022-07-05T05:03:41;19.80;87.90
4584;DHT22;2304;47.606;12.186;2022-07-05T05:08:43;19.90;88.90
4584;DHT22;2304;47.606;12.186;2022-07-05T05:13:46;20.00;88.70
4584;DHT22;2304;47.606;12.186;2022-07-05T05:18:48;20.10;89.50
4584;DHT22;2304;47.606;12.186;2022-07-05T05:23:50;20.20;88.70
4584;DHT22;2304;47.606;12.186;2022-07-05T05:28:53;20.20;88.10
4584;DHT22;2304;47.606;12.186;2022-07-05T05:33:55;20.30;88.30
4584;DHT22;2304;47.606;12.186;2022-07-05T05:38:57;20.30;88.50
4584;DHT22;2304;47.606;12.186;2022-07-05T05:44:01;20.30;87.50
4584;DHT22;2304;47.606;12.186;2022-07-05T05:49:02;20.30;87.30
4584;DHT22;2304;47.606;12.186;2022-07-05T05:54:05;20.30;86.20
4584;DHT22;2304;47.606;12.186;2022-07-05T05:59:08;20.30;86.60
4584;DHT22;2304;47.606;12.186;2022-07-05T06:04:10;20.30;87.40
4584;DHT22;2304;47.606;12.186;2022-07-05T06:09:12;20.40;87.10
4584;DHT22;2304;47.606;12.186;2022-07-05T06:14:15;20.50;87.10
4584;DHT22;2304;47.606;12.186;2022-07-05T06:19:17;20.50;85.30
4584;DHT22;2304;47.606;12.186;2022-07-05T06:24:19;20.70;85.70
4584;DHT22;2304;47.606;12.186;2022-07-05T06:29:22;20.90;83.60
4584;DHT22;2304;47.606;12.186;2022-07-05T06:34:24;20.90;81.70
4584;DHT22;2304;47.606;12.186;2022-07-05T06:39:27;20.90;82.70
4584;DHT22;2304;47.606;12.186;2022-07-05T06:44:30;20.80;83.00
4584;DHT22;2304;47.606;12.186;2022-07-05T06:49:32;20.70;80.90
4584;DHT22;2304;47.606;12.186;2022-07-05T06:54:34;20.70;81.30
4584;DHT22;2304;47.606;12.186;2022-07-05T06:59:37;20.90;82.30
4584;DHT22;2304;47.606;12.186;2022-07-05T07:04:39;21.00;81.90
4584;DHT22;2304;47.606;12.186;2022-07-05T07:09:41;21.10;80.80
4584;DHT22;2304;47.606;12.186;2022-07-05T07:14:44;21.20;81.20
4584;DHT22;2304;47.606;12.186;2022-07-05T07:19:46;21.30;81.40
4584;DHT22;2304;47.606;12.186;2022-07-05T07:24:48;21.40;80.70
4584;DHT22;2304;47.606;12.186;2022-07-05T07:29:51;21.40;78.80
4584;DHT22;2304;47.606;12.186;2022-07-05T07:34:53;21.60;79.80
4584;DHT22;2304;47.606;12.186;2022-07-05T07:39:55;21.70;77.70
4584;DHT22;2304;47.606;12.186;2022-07-05T07:44:59;21.80;77.00
4584;DHT22;2304;47.606;12.186;2022-07-05T07:50:05;21.90;76.90
4584;DHT22;2304;47.606;12.186;2022-07-05T07:55:07;21.90;76.80
4584;DHT22;2304;47.606;12.186;2022-07-05T08:00:12;22.10;77.70
4584;DHT22;2304;47.606;12.186;2022-07-05T08:05:14;22.60;76.30
4584;DHT22;2304;47.606;12.186;2022-07-05T08:10:16;23.00;74.10
4584;DHT22;2304;47.606;12.186;2022-07-05T08:15:20;23.10;72.00
4584;DHT22;2304;47.606;12.186;2022-07-05T08:20:22;23.20;72.90
4584;DHT22;2304;47.606;12.186;2022-07-05T08:25:43;23.30;70.00
4584;DHT22;2304;47.606;12.186;2022-07-05T08:30:46;23.30;68.70
4584;DHT22;2304;47.606;12.186;2022-07-05T08:35:48;23.30;69.10
4584;DHT22;2304;47.606;12.186;2022-07-05T08:40:51;23.20;68.10
4584;DHT22;2304;47.606;12.186;2022-07-05T08:45:58;23.00;68.80
4584;DHT22;2304;47.606;12.186;2022-07-05T08:51:01;23.00;70.90
4584;DHT22;2304;47.606;12.186;2022-07-05T08:56:04;23.10;71.00
4584;DHT22;2304;47.606;12.186;2022-07-05T09:01:10;23.10;71.00
4584;DHT22;2304;47.606;12.186;2022-07-05T09:06:13;23.00;70.80
4584;DHT22;2304;47.606;12.186;2022-07-05T09:11:16;23.00;70.40
4584;DHT22;2304;47.606;12.186;2022-07-05T09:16:19;23.00;70.50
4584;DHT22;2304;47.606;12.186;2022-07-05T09:21:22;23.00;70.80
4584;DHT22;2304;47.606;12.186;2022-07-05T09:26:32;23.00;70.90
4584;DHT22;2304;47.606;12.186;2022-07-05T09:31:37;23.10;70.20
4584;DHT22;2304;47.606;12.186;2022-07-05T09:36:50;23.10;69.80
4584;DHT22;2304;47.606;12.186;2022-07-05T09:42:12;23.20;70.60
4584;DHT22;2304;47.606;12.186;2022-07-05T09:47:16;23.30;70.70
4584;DHT22;2304;47.606;12.186;2022-07-05T09:52:29;23.40;71.30
4584;DHT22;2304;47.606;12.186;2022-07-05T09:57:32;23.30;70.60
4584;DHT22;2304;47.606;12.186;2022-07-05T10:02:37;23.30;71.40
4584;DHT22;2304;47.606;12.186;2022-07-05T10:07:43;23.50;71.10
4584;DHT22;2304;47.606;12.186;2022-07-05T10:12:49;23.70;70.40
4584;DHT22;2304;47.606;12.186;2022-07-05T10:17:54;23.80;69.20
4584;DHT22;2304;47.606;12.186;2022-07-05T10:22:56;23.80;69.20
4584;DHT22;2304;47.606;12.186;2022-07-05T10:27:59;23.80;69.20
4584;DHT22;2304;47.606;12.186;2022-07-05T10:33:06;23.90;69.30
4584;DHT22;2304;47.606;12.186;2022-07-05T10:38:09;24.00;69.80
4584;DHT22;2304;47.606;12.186;2022-07-05T10:43:12;24.30;69.80
4584;DHT22;2304;47.606;12.186;2022-07-05T10:48:18;24.20;67.80
4584;DHT22;2304;47.606;12.186;2022-07-05T10:53:22;24.50;69.30
4584;DHT22;2304;47.606;12.186;2022-07-05T10:58:26;24.80;68.80
4584;DHT22;2304;47.606;12.186;2022-07-05T11:03:34;24.90;67.00
4584;DHT22;2304;47.606;12.186;2022-07-05T11:09:13;24.70;64.20
4584;DHT22;2304;47.606;12.186;2022-07-05T11:14:44;24.20;62.50
4584;DHT22;2304;47.606;12.186;2022-07-05T11:20:06;24.20;65.40
4584;DHT22;2304;47.606;12.186;2022-07-05T11:25:10;24.20;64.80
4584;DHT22;2304;47.606;12.186;2022-07-05T11:30:22;24.20;66.10
4584;DHT22;2304;47.606;12.186;2022-07-05T11:35:31;24.30;66.70
4584;DHT22;2304;47.606;12.186;2022-07-05T11:40:35;24.30;66.10
4584;DHT22;2304;47.606;12.186;2022-07-05T11:45:38;24.30;66.10
4584;DHT22;2304;47.606;12.186;2022-07-05T11:50:41;24.30;65.40
4584;DHT22;2304;47.606;12.186;2022-07-05T11:55:43;24.20;66.70
4584;DHT22;2304;47.606;12.186;2022-07-05T12:00:53;24.30;66.10
4584;DHT22;2304;47.606;12.186;2022-07-05T12:05:57;24.20;65.70
4584;DHT22;2304;47.606;12.186;2022-07-05T12:10:59;24.30;65.80
4584;DHT22;2304;47.606;12.186;2022-07-05T12:16:19;24.10;65.30
4584;DHT22;2304;47.606;12.186;2022-07-05T12:21:23;24.00;66.50
4584;DHT22;2304;47.606;12.186;2022-07-05T12:26:25;24.00;66.70
4584;DHT22;2304;47.606;12.186;2022-07-05T12:31:27;24.00;64.20
4584;DHT22;2304;47.606;12.186;2022-07-05T12:36:30;24.30;64.60
4584;DHT22;2304;47.606;12.186;2022-07-05T12:41:32;24.40;64.90
4584;DHT22;2304;47.606;12.186;2022-07-05T12:46:37;24.60;63.70
4584;DHT22;2304;47.606;12.186;2022-07-05T12:51:42;24.80;63.00
4584;DHT22;2304;47.606;12.186;2022-07-05T12:56:50;25.20;64.60
4584;DHT22;2304;47.606;12.186;2022-07-05T13:02:09;25.40;62.40
4584;DHT22;2304;47.606;12.186;2022-07-05T13:07:24;25.40;58.90
4584;DHT22;2304;47.606;12.186;2022-07-05T13:12:27;25.30;60.30
4584;DHT22;2304;47.606;12.186;2022-07-05T13:17:30;25.70;59.00
4584;DHT22;2304;47.606;12.186;2022-07-05T13:22:33;25.40;57.90
4584;DHT22;2304;47.606;12.186;2022-07-05T13:27:35;24.90;59.00
4584;DHT22;2304;47.606;12.186;2022-07-05T13:32:37;24.60;61.30
4584;DHT22;2304;47.606;12.186;2022-07-05T13:37:40;24.40;60.70
4584;DHT22;2304;47.606;12.186;2022-07-05T13:42:42;24.40;59.50
4584;DHT22;2304;47.606;12.186;2022-07-05T13:47:44;24.40;59.80
4584;DHT22;2304;47.606;12.186;2022-07-05T13:52:47;24.70;57.70
4584;DHT22;2304;47.606;12.186;2022-07-05T13:57:49;25.10;57.00
4584;DHT22;2304;47.606;12.186;2022-07-05T14:02:51;25.20;56.50
4584;DHT22;2304;47.606;12.186;2022-07-05T14:07:54;25.60;55.10
4584;DHT22;2304;47.606;12.186;2022-07-05T14:12:56;25.60;55.90
4584;DHT22;2304;47.606;12.186;2022-07-05T14:17:58;25.80;56.10
4584;DHT22;2304;47.606;12.186;2022-07-05T14:23:04;25.80;55.60
4584;DHT22;2304;47.606;12.186;2022-07-05T14:28:06;25.60;56.50
4584;DHT22;2304;47.606;12.186;2022-07-05T14:33:10;25.80;55.60
4584;DHT22;2304;47.606;12.186;2022-07-05T14:38:13;25.90;55.70
4584;DHT22;2304;47.606;12.186;2022-07-05T14:43:15;25.60;54.30
4584;DHT22;2304;47.606;12.186;2022-07-05T14:48:17;25.80;53.90
4584;DHT22;2304;47.606;12.186;2022-07-05T14:53:21;25.90;53.20
4584;DHT22;2304;47.606;12.186;2022-07-05T14:58:24;26.00;54.00
4584;DHT22;2304;47.606;12.186;2022-07-05T15:03:31;26.10;51.30
4584;DHT22;2304;47.606;12.186;2022-07-05T15:08:34;26.20;53.00
4584;DHT22;2304;47.606;12.186;2022-07-05T15:13:36;26.30;53.20
4584;DHT22;2304;47.606;12.186;2022-07-05T15:18:38;26.40;52.70
4584;DHT22;2304;47.606;12.186;2022-07-05T15:23:41;26.50;52.80
4584;DHT22;2304;47.606;12.186;2022-07-05T15:28:43;26.50;51.30
4584;DHT22;2304;47.606;12.186;2022-07-05T15:33:45;26.30;51.10
4584;DHT22;2304;47.606;12.186;2022-07-05T15:38:48;26.30;51.10
4584;DHT22;2304;47.606;12.186;2022-07-05T15:43:50;26.20;51.10
4584;DHT22;2304;47.606;12.186;2022-07-05T15:48:52;26.10;50.90
4584;DHT22;2304;47.606;12.186;2022-07-05T15:53:57;26.20;51.50
4584;DHT22;2304;47.606;12.186;2022-07-05T15:58:59;26.10;51.50
4584;DHT22;2304;47.606;12.186;2022-07-05T16:04:00;25.90;51.00
4584;DHT22;2304;47.606;12.186;2022-07-05T16:09:04;25.80;51.50
4584;DHT22;2304;47.606;12.186;2022-07-05T16:14:06;25.80;51.90
4584;DHT22;2304;47.606;12.186;2022-07-05T16:19:08;25.70;53.00
4584;DHT22;2304;47.606;12.186;2022-07-05T16:24:11;25.30;54.30
4584;DHT22;2304;47.606;12.186;2022-07-05T16:29:13;25.30;55.10
4584;DHT22;2304;47.606;12.186;2022-07-05T16:34:15;25.30;55.20
4584;DHT22;2304;47.606;12.186;2022-07-05T16:39:18;25.20;55.40
4584;DHT22;2304;47.606;12.186;2022-07-05T16:44:20;25.10;55.30
4584;DHT22;2304;47.606;12.186;2022-07-05T16:49:22;25.00;56.00
4584;DHT22;2304;47.606;12.186;2022-07-05T16:54:25;24.90;56.70
4584;DHT22;2304;47.606;12.186;2022-07-05T16:59:28;24.80;56.80
4584;DHT22;2304;47.606;12.186;2022-07-05T17:04:30;24.70;57.80
4584;DHT22;2304;47.606;12.186;2022-07-05T17:09:33;24.70;58.90
4584;DHT22;2304;47.606;12.186;2022-07-05T17:14:35;24.60;59.30
4584;DHT22;2304;47.606;12.186;2022-07-05T17:19:37;24.50;58.40
4584;DHT22;2304;47.606;12.186;2022-07-05T17:24:40;24.40;58.90
4584;DHT22;2304;47.606;12.186;2022-07-05T17:29:42;24.30;59.70
4584;DHT22;2304;47.606;12.186;2022-07-05T17:34:44;24.20;59.60
4584;DHT22;2304;47.606;12.186;2022-07-05T17:39:48;24.00;59.00
4584;DHT22;2304;47.606;12.186;2022-07-05T17:44:50;24.10;59.60
4584;DHT22;2304;47.606;12.186;2022-07-05T17:49:52;23.80;60.00
4584;DHT22;2304;47.606;12.186;2022-07-05T17:54:55;23.70;60.40
4584;DHT22;2304;47.606;12.186;2022-07-05T17:59:57;23.60;60.00
4584;DHT22;2304;47.606;12.186;2022-07-05T18:04:59;23.50;60.00
4584;DHT22;2304;47.606;12.186;2022-07-05T18:10:02;23.40;61.50
4584;DHT22;2304;47.606;12.186;2022-07-05T18:15:05;23.40;61.50
4584;DHT22;2304;47.606;12.186;2022-07-05T18:20:08;23.40;61.80
4584;DHT22;2304;47.606;12.186;2022-07-05T18:25:11;23.30;61.30
4584;DHT22;2304;47.606;12.186;2022-07-05T18:30:13;23.20;61.10
4584;DHT22;2304;47.606;12.186;2022-07-05T18:35:16;23.20;61.80
4584;DHT22;2304;47.606;12.186;2022-07-05T18:40:19;23.10;62.30
4584;DHT22;2304;47.606;12.186;2022-07-05T18:45:21;23.00;63.10
4584;DHT22;2304;47.606;12.186;2022-07-05T18:50:23;22.90;64.40
4584;DHT22;2304;47.606;12.186;2022-07-05T18:55:26;22.90;65.20
4584;DHT22;2304;47.606;12.186;2022-07-05T19:00:28;22.70;63.70
4584;DHT22;2304;47.606;12.186;2022-07-05T19:05:30;22.60;65.20
4584;DHT22;2304;47.606;12.186;2022-07-05T19:10:33;22.50;66.10
4584;DHT22;2304;47.606;12.186;2022-07-05T19:15:54;22.50;65.30
4584;DHT22;2304;47.606;12.186;2022-07-05T19:20:56;22.40;65.40
4584;DHT22;2304;47.606;12.186;2022-07-05T19:25:59;22.40;66.00
4584;DHT22;2304;47.606;12.186;2022-07-05T19:31:01;22.40;66.10
4584;DHT22;2304;47.606;12.186;2022-07-05T19:36:03;22.30;65.80
4584;DHT22;2304;47.606;12.186;2022-07-05T19:41:07;22.10;65.50
4584;DHT22;2304;47.606;12.186;2022-07-05T19:46:09;22.20;66.90
4584;DHT22;2304;47.606;12.186;2022-07-05T19:51:10;22.10;65.70
4584;DHT22;2304;47.606;12.186;2022-07-05T19:56:14;22.10;68.20
4584;DHT22;2304;47.606;12.186;2022-07-05T20:01:16;22.00;67.20
4584;DHT22;2304;47.606;12.186;2022-07-05T20:06:17;21.80;68.00
4584;DHT22;2304;47.606;12.186;2022-07-05T20:11:21;21.70;68.90
4584;DHT22;2304;47.606;12.186;2022-07-05T20:16:22;21.70;69.00
4584;DHT22;2304;47.606;12.186;2022-07-05T20:21:24;21.60;68.40
4584;DHT22;2304;47.606;12.186;2022-07-05T20:26:28;21.50;69.00
4584;DHT22;2304;47.606;12.186;2022-07-05T20:31:29;21.50;69.70
4584;DHT22;2304;47.606;12.186;2022-07-05T20:36:31;21.50;70.80
4584;DHT22;2304;47.606;12.186;2022-07-05T20:41:35;21.50;70.40
4584;DHT22;2304;47.606;12.186;2022-07-05T20:46:38;21.50;70.00
4584;DHT22;2304;47.606;12.186;2022-07-05T20:51:39;21.40;67.90
4584;DHT22;2304;47.606;12.186;2022-07-05T20:56:43;21.30;67.50
4584;DHT22;2304;47.606;12.186;2022-07-05T21:01:45;21.30;68.50
4584;DHT22;2304;47.606;12.186;2022-07-05T21:06:47;21.30;69.70
4584;DHT22;2304;47.606;12.186;2022-07-05T21:11:50;21.30;70.10
4584;DHT22;2304;47.606;12.186;2022-07-05T21:16:52;21.20;69.30
4584;DHT22;2304;47.606;12.186;2022-07-05T21:21:55;21.20;69.80
4584;DHT22;2304;47.606;12.186;2022-07-05T21:27:01;21.10;69.40
4584;DHT22;2304;47.606;12.186;2022-07-05T21:32:04;21.20;71.00
4584;DHT22;2304;47.606;12.186;2022-07-05T21:37:06;21.10;70.40
4584;DHT22;2304;47.606;12.186;2022-07-05T21:42:09;21.10;71.20
4584;DHT22;2304;47.606;12.186;2022-07-05T21:47:11;21.00;70.20
4584;DHT22;2304;47.606;12.186;2022-07-05T21:52:13;21.00;71.20
4584;DHT22;2304;47.606;12.186;2022-07-05T21:57:16;20.90;71.40
4584;DHT22;2304;47.606;12.186;2022-07-05T22:02:19;20.90;72.10
4584;DHT22;2304;47.606;12.186;2022-07-05T22:07:38;20.90;72.70
4584;DHT22;2304;47.606;12.186;2022-07-05T22:12:41;20.90;72.80
4584;DHT22;2304;47.606;12.186;2022-07-05T22:17:43;20.80;71.80
4584;DHT22;2304;47.606;12.186;2022-07-05T22:22:45;20.70;72.50
4584;DHT22;2304;47.606;12.186;2022-07-05T22:27:48;20.80;72.30
4584;DHT22;2304;47.606;12.186;2022-07-05T22:32:50;20.70;72.20
4584;DHT22;2304;47.606;12.186;2022-07-05T22:37:52;20.70;72.20
4584;DHT22;2304;47.606;12.186;2022-07-05T22:42:55;20.70;72.00
4584;DHT22;2304;47.606;12.186;2022-07-05T22:47:57;20.60;70.90
4584;DHT22;2304;47.606;12.186;2022-07-05T22:52:59;20.50;72.30
4584;DHT22;2304;47.606;12.186;2022-07-05T22:58:03;20.50;72.20
4584;DHT22;2304;47.606;12.186;2022-07-05T23:03:04;20.50;72.10
4584;DHT22;2304;47.606;12.186;2022-07-05T23:08:07;20.40;72.10
4584;DHT22;2304;47.606;12.186;2022-07-05T23:13:10;20.40;72.50
4584;DHT22;2304;47.606;12.186;2022-07-05T23:18:12;20.40;73.10
4584;DHT22;2304;47.606;12.186;2022-07-05T23:23:14;20.30;72.80
4584;DHT22;2304;47.606;12.186;2022-07-05T23:28:17;20.20;70.70
4584;DHT22;2304;47.606;12.186;2022-07-05T23:33:19;20.10;73.30
4584;DHT22;2304;47.606;12.186;2022-07-05T23:38:23;20.10;73.10
4584;DHT22;2304;47.606;12.186;2022-07-05T23:43:26;20.10;73.70
4584;DHT22;2304;47.606;12.186;2022-07-05T23:48:28;20.10;74.00
4584;DHT22;2304;47.606;12.186;2022-07-05T23:53:30;20.10;74.20
4584;DHT22;2304;47.606;12.186;2022-07-05T23:58:33;20.10;73.20
